Terminal Aerodrome Forecast
Issued by NWS Louisville, KY

Home | Current Version | Previous Version | Text Only | Print | Product List | Glossary On
Versions: 1 2 3 4 5 6 7 8 9 10 11 12 13 14 15
000
FTUS43 KLMK 201700
TAFLEX
TAF
KLEX 201720Z 2018/2118 VRB03KT P6SM BKN050
     FM210900 06003KT P6SM BKN040
     FM211200 09004KT P6SM SCT040=

USA.gov is the U.S. government's official web portal to all federal, state and local government web resources and services.